sensor_id;sensor_type;location;lat;lon;timestamp;pressure;altitude;pressure_sealevel;temperature;humidity
56719;BME280;42597;40.636;0.278;2023-07-31T00:01:47;97496.13;;;27.85;100.00
56719;BME280;42597;40.636;0.278;2023-07-31T00:04:13;97492.50;;;27.97;100.00
56719;BME280;42597;40.636;0.278;2023-07-31T00:06:38;97490.06;;;27.99;99.62
56719;BME280;42597;40.636;0.278;2023-07-31T00:09:04;97494.84;;;27.77;100.00
56719;BME280;42597;40.636;0.278;2023-07-31T00:11:29;97490.06;;;27.99;100.00
56719;BME280;42597;40.636;0.278;2023-07-31T00:13:55;97487.72;;;27.98;100.00
56719;BME280;42597;40.636;0.278;2023-07-31T00:16:21;97482.56;;;27.87;100.00
56719;BME280;42597;40.636;0.278;2023-07-31T00:18:46;97483.59;;;28.02;99.65
56719;BME280;42597;40.636;0.278;2023-07-31T00:21:12;97489.47;;;28.04;99.83
56719;BME280;42597;40.636;0.278;2023-07-31T00:23:37;97489.00;;;28.06;99.12
56719;BME280;42597;40.636;0.278;2023-07-31T00:26:03;97488.00;;;27.91;99.77
56719;BME280;42597;40.636;0.278;2023-07-31T00:28:28;97485.78;;;28.08;99.08
56719;BME280;42597;40.636;0.278;2023-07-31T00:30:54;97488.56;;;28.08;98.62
56719;BME280;42597;40.636;0.278;2023-07-31T00:33:19;97485.66;;;27.89;99.43
56719;BME280;42597;40.636;0.278;2023-07-31T00:35:45;97487.78;;;27.85;100.00
56719;BME280;42597;40.636;0.278;2023-07-31T00:38:11;97488.22;;;28.05;98.59
56719;BME280;42597;40.636;0.278;2023-07-31T00:40:37;97484.50;;;27.99;97.51
56719;BME280;42597;40.636;0.278;2023-07-31T00:43:03;97476.75;;;27.94;98.87
56719;BME280;42597;40.636;0.278;2023-07-31T00:45:29;97482.44;;;28.22;96.92
56719;BME280;42597;40.636;0.278;2023-07-31T00:47:55;97480.47;;;28.00;98.31
56719;BME280;42597;40.636;0.278;2023-07-31T00:50:22;97474.41;;;27.71;99.65
56719;BME280;42597;40.636;0.278;2023-07-31T00:52:49;97471.47;;;27.87;98.63
56719;BME280;42597;40.636;0.278;2023-07-31T00:55:15;97480.06;;;27.80;98.70
56719;BME280;42597;40.636;0.278;2023-07-31T00:57:41;97488.63;;;27.95;98.16
56719;BME280;42597;40.636;0.278;2023-07-31T01:00:08;97471.31;;;27.69;99.10
56719;BME280;42597;40.636;0.278;2023-07-31T01:02:35;97477.75;;;27.66;99.49
56719;BME280;42597;40.636;0.278;2023-07-31T01:05:01;97470.81;;;27.83;98.13
56719;BME280;42597;40.636;0.278;2023-07-31T01:10:16;97467.97;;;27.74;97.88
56719;BME280;42597;40.636;0.278;2023-07-31T01:12:44;97472.63;;;27.77;98.44
56719;BME280;42597;40.636;0.278;2023-07-31T01:15:10;97465.34;;;28.01;96.34
56719;BME280;42597;40.636;0.278;2023-07-31T01:17:37;97460.34;;;27.87;97.14
56719;BME280;42597;40.636;0.278;2023-07-31T01:20:15;97468.47;;;27.60;98.31
56719;BME280;42597;40.636;0.278;2023-07-31T01:26:00;97459.28;;;27.72;97.70
56719;BME280;42597;40.636;0.278;2023-07-31T01:31:22;97462.53;;;27.48;98.16
56719;BME280;42597;40.636;0.278;2023-07-31T01:33:50;97461.47;;;27.33;98.54
56719;BME280;42597;40.636;0.278;2023-07-31T01:36:18;97466.41;;;27.73;96.52
56719;BME280;42597;40.636;0.278;2023-07-31T01:38:43;97454.78;;;27.43;97.82
56719;BME280;42597;40.636;0.278;2023-07-31T01:41:09;97462.94;;;27.82;95.60
56719;BME280;42597;40.636;0.278;2023-07-31T01:43:36;97463.03;;;27.34;96.67
56719;BME280;42597;40.636;0.278;2023-07-31T01:46:02;97458.56;;;26.89;99.53
56719;BME280;42597;40.636;0.278;2023-07-31T01:48:27;97460.59;;;26.76;100.00
56719;BME280;42597;40.636;0.278;2023-07-31T01:50:53;97448.25;;;27.02;99.67
56719;BME280;42597;40.636;0.278;2023-07-31T01:53:18;97450.00;;;26.96;100.00
56719;BME280;42597;40.636;0.278;2023-07-31T01:55:44;97449.31;;;26.70;100.00
56719;BME280;42597;40.636;0.278;2023-07-31T01:58:10;97448.25;;;27.02;100.00
56719;BME280;42597;40.636;0.278;2023-07-31T02:00:35;97440.78;;;27.12;99.84
56719;BME280;42597;40.636;0.278;2023-07-31T02:03:01;97438.63;;;27.29;99.07
56719;BME280;42597;40.636;0.278;2023-07-31T02:05:26;97444.03;;;27.11;98.61
56719;BME280;42597;40.636;0.278;2023-07-31T02:07:52;97443.22;;;27.23;99.36
56719;BME280;42597;40.636;0.278;2023-07-31T02:10:17;97444.69;;;27.15;99.17
56719;BME280;42597;40.636;0.278;2023-07-31T02:12:43;97444.44;;;27.44;97.65
56719;BME280;42597;40.636;0.278;2023-07-31T02:15:09;97438.47;;;27.11;98.86
56719;BME280;42597;40.636;0.278;2023-07-31T02:17:34;97444.22;;;27.16;98.42
56719;BME280;42597;40.636;0.278;2023-07-31T02:20:00;97439.78;;;27.41;96.91
56719;BME280;42597;40.636;0.278;2023-07-31T02:22:25;97450.34;;;27.11;95.04
56719;BME280;42597;40.636;0.278;2023-07-31T02:24:51;97441.41;;;26.69;97.40
56719;BME280;42597;40.636;0.278;2023-07-31T02:27:16;97436.31;;;26.03;100.00
56719;BME280;42597;40.636;0.278;2023-07-31T02:29:42;97440.88;;;25.68;100.00
56719;BME280;42597;40.636;0.278;2023-07-31T02:32:07;97432.66;;;25.94;100.00
56719;BME280;42597;40.636;0.278;2023-07-31T02:34:33;97428.91;;;26.51;99.10
56719;BME280;42597;40.636;0.278;2023-07-31T02:36:58;97421.25;;;26.68;96.19
56719;BME280;42597;40.636;0.278;2023-07-31T02:39:24;97430.66;;;26.83;97.73
56719;BME280;42597;40.636;0.278;2023-07-31T02:41:49;97430.09;;;26.76;94.93
56719;BME280;42597;40.636;0.278;2023-07-31T02:44:15;97432.00;;;26.41;96.63
56719;BME280;42597;40.636;0.278;2023-07-31T02:46:40;97437.44;;;26.70;97.66
56719;BME280;42597;40.636;0.278;2023-07-31T02:49:06;97430.53;;;26.87;96.17
56719;BME280;42597;40.636;0.278;2023-07-31T02:51:31;97436.53;;;27.20;94.00
56719;BME280;42597;40.636;0.278;2023-07-31T02:53:57;97433.38;;;26.96;95.25
56719;BME280;42597;40.636;0.278;2023-07-31T02:56:22;97439.28;;;27.33;92.54
56719;BME280;42597;40.636;0.278;2023-07-31T02:58:48;97430.94;;;26.98;94.08
56719;BME280;42597;40.636;0.278;2023-07-31T03:01:13;97431.47;;;27.06;92.98
56719;BME280;42597;40.636;0.278;2023-07-31T03:03:41;97427.69;;;27.13;91.93
56719;BME280;42597;40.636;0.278;2023-07-31T03:06:07;97427.66;;;26.78;88.25
56719;BME280;42597;40.636;0.278;2023-07-31T03:08:33;97433.09;;;26.69;91.10
56719;BME280;42597;40.636;0.278;2023-07-31T03:10:58;97426.34;;;26.70;92.20
56719;BME280;42597;40.636;0.278;2023-07-31T03:13:24;97432.03;;;26.66;87.78
56719;BME280;42597;40.636;0.278;2023-07-31T03:15:50;97435.13;;;26.17;84.49
56719;BME280;42597;40.636;0.278;2023-07-31T03:18:15;97430.31;;;26.69;89.12
56719;BME280;42597;40.636;0.278;2023-07-31T03:20:44;97426.16;;;26.51;85.79
56719;BME280;42597;40.636;0.278;2023-07-31T03:23:10;97428.06;;;26.89;87.72
56719;BME280;42597;40.636;0.278;2023-07-31T03:25:35;97425.91;;;25.95;80.55
56719;BME280;42597;40.636;0.278;2023-07-31T03:28:01;97432.25;;;25.66;80.98
56719;BME280;42597;40.636;0.278;2023-07-31T03:30:26;97429.88;;;25.81;80.62
56719;BME280;42597;40.636;0.278;2023-07-31T03:32:52;97428.03;;;25.62;78.59
56719;BME280;42597;40.636;0.278;2023-07-31T03:35:17;97433.91;;;26.31;80.48
56719;BME280;42597;40.636;0.278;2023-07-31T03:37:43;97426.47;;;26.66;82.80
56719;BME280;42597;40.636;0.278;2023-07-31T03:40:09;97433.59;;;26.54;74.29
56719;BME280;42597;40.636;0.278;2023-07-31T03:42:35;97428.78;;;25.91;75.48
56719;BME280;42597;40.636;0.278;2023-07-31T03:45:00;97424.56;;;25.99;84.93
56719;BME280;42597;40.636;0.278;2023-07-31T03:47:26;97426.91;;;26.26;80.92
56719;BME280;42597;40.636;0.278;2023-07-31T03:49:51;97424.81;;;26.43;78.23
56719;BME280;42597;40.636;0.278;2023-07-31T03:52:17;97433.22;;;26.27;76.38
56719;BME280;42597;40.636;0.278;2023-07-31T03:54:42;97432.31;;;26.04;77.38
56719;BME280;42597;40.636;0.278;2023-07-31T03:57:10;97437.06;;;25.78;76.80
56719;BME280;42597;40.636;0.278;2023-07-31T03:59:36;97431.91;;;26.19;77.31
56719;BME280;42597;40.636;0.278;2023-07-31T04:02:03;97433.69;;;26.38;76.40
56719;BME280;42597;40.636;0.278;2023-07-31T04:04:29;97435.53;;;26.03;77.66
56719;BME280;42597;40.636;0.278;2023-07-31T04:06:54;97425.88;;;25.82;82.41
56719;BME280;42597;40.636;0.278;2023-07-31T04:09:20;97421.81;;;26.38;81.47
56719;BME280;42597;40.636;0.278;2023-07-31T04:11:46;97423.34;;;26.64;80.96
56719;BME280;42597;40.636;0.278;2023-07-31T04:14:11;97416.16;;;26.67;81.52
56719;BME280;42597;40.636;0.278;2023-07-31T04:16:37;97415.94;;;26.48;82.10
56719;BME280;42597;40.636;0.278;2023-07-31T04:19:03;97420.66;;;26.86;79.56
56719;BME280;42597;40.636;0.278;2023-07-31T04:21:29;97420.16;;;26.66;79.32
56719;BME280;42597;40.636;0.278;2023-07-31T04:23:54;97422.16;;;26.52;76.95
56719;BME280;42597;40.636;0.278;2023-07-31T04:26:21;97423.63;;;25.35;76.80
56719;BME280;42597;40.636;0.278;2023-07-31T04:28:47;97426.34;;;25.93;77.06
56719;BME280;42597;40.636;0.278;2023-07-31T04:31:12;97430.75;;;25.78;74.45
56719;BME280;42597;40.636;0.278;2023-07-31T04:33:38;97426.44;;;25.19;75.52
56719;BME280;42597;40.636;0.278;2023-07-31T04:36:04;97421.53;;;24.94;77.51
56719;BME280;42597;40.636;0.278;2023-07-31T04:38:30;97423.84;;;25.11;75.37
56719;BME280;42597;40.636;0.278;2023-07-31T04:40:55;97424.22;;;24.97;74.29
56719;BME280;42597;40.636;0.278;2023-07-31T04:43:21;97421.59;;;25.06;72.90
56719;BME280;42597;40.636;0.278;2023-07-31T04:45:46;97422.44;;;24.74;72.76
56719;BME280;42597;40.636;0.278;2023-07-31T04:48:13;97427.16;;;24.90;73.39
56719;BME280;42597;40.636;0.278;2023-07-31T04:50:38;97419.72;;;24.87;70.56
56719;BME280;42597;40.636;0.278;2023-07-31T04:53:04;97423.25;;;24.87;70.39
56719;BME280;42597;40.636;0.278;2023-07-31T04:55:29;97441.25;;;24.10;72.11
56719;BME280;42597;40.636;0.278;2023-07-31T04:57:55;97441.94;;;24.14;71.53
56719;BME280;42597;40.636;0.278;2023-07-31T05:00:20;97439.91;;;24.35;70.49
56719;BME280;42597;40.636;0.278;2023-07-31T05:02:46;97436.47;;;24.80;71.42
56719;BME280;42597;40.636;0.278;2023-07-31T05:05:12;97437.78;;;24.92;68.16
56719;BME280;42597;40.636;0.278;2023-07-31T05:07:37;97434.88;;;24.50;68.77
56719;BME280;42597;40.636;0.278;2023-07-31T05:10:03;97437.50;;;25.02;69.91
56719;BME280;42597;40.636;0.278;2023-07-31T05:12:28;97434.75;;;25.19;67.17
56719;BME280;42597;40.636;0.278;2023-07-31T05:14:54;97437.06;;;25.49;67.05
56719;BME280;42597;40.636;0.278;2023-07-31T05:17:19;97437.75;;;25.53;67.84
56719;BME280;42597;40.636;0.278;2023-07-31T05:19:45;97439.34;;;25.09;65.09
56719;BME280;42597;40.636;0.278;2023-07-31T05:22:10;97437.16;;;25.00;69.36
56719;BME280;42597;40.636;0.278;2023-07-31T05:24:36;97432.47;;;25.72;70.50
56719;BME280;42597;40.636;0.278;2023-07-31T05:27:02;97436.47;;;25.71;66.37
56719;BME280;42597;40.636;0.278;2023-07-31T05:29:27;97422.41;;;25.36;68.13
56719;BME280;42597;40.636;0.278;2023-07-31T05:31:53;97427.00;;;25.55;68.37
56719;BME280;42597;40.636;0.278;2023-07-31T05:34:18;97430.88;;;25.87;67.92
56719;BME280;42597;40.636;0.278;2023-07-31T05:36:44;97432.31;;;24.88;65.23
56719;BME280;42597;40.636;0.278;2023-07-31T05:39:09;97432.44;;;24.84;66.18
56719;BME280;42597;40.636;0.278;2023-07-31T05:41:35;97427.34;;;24.83;66.97
56719;BME280;42597;40.636;0.278;2023-07-31T05:44:01;97432.06;;;24.33;64.61
56719;BME280;42597;40.636;0.278;2023-07-31T05:46:26;97427.44;;;24.63;67.31
56719;BME280;42597;40.636;0.278;2023-07-31T05:48:52;97434.00;;;24.85;63.75
56719;BME280;42597;40.636;0.278;2023-07-31T05:51:17;97427.25;;;25.32;64.85
56719;BME280;42597;40.636;0.278;2023-07-31T05:53:43;97434.06;;;25.44;62.46
56719;BME280;42597;40.636;0.278;2023-07-31T05:56:09;97429.78;;;25.55;64.10
56719;BME280;42597;40.636;0.278;2023-07-31T05:58:34;97427.34;;;25.57;66.03
56719;BME280;42597;40.636;0.278;2023-07-31T06:01:00;97430.31;;;25.92;66.42
56719;BME280;42597;40.636;0.278;2023-07-31T06:03:25;97434.81;;;25.73;62.11
56719;BME280;42597;40.636;0.278;2023-07-31T06:05:51;97425.88;;;25.82;62.04
56719;BME280;42597;40.636;0.278;2023-07-31T06:08:16;97433.47;;;25.65;61.94
56719;BME280;42597;40.636;0.278;2023-07-31T06:10:42;97429.78;;;25.55;61.46
56719;BME280;42597;40.636;0.278;2023-07-31T06:13:07;97431.06;;;25.38;60.71
56719;BME280;42597;40.636;0.278;2023-07-31T06:15:33;97427.88;;;25.52;60.17
56719;BME280;42597;40.636;0.278;2023-07-31T06:17:59;97434.81;;;25.73;60.23
56719;BME280;42597;40.636;0.278;2023-07-31T06:20:27;97429.78;;;25.55;60.15
56719;BME280;42597;40.636;0.278;2023-07-31T06:22:53;97444.50;;;25.81;60.66
56719;BME280;42597;40.636;0.278;2023-07-31T06:25:18;97445.69;;;25.80;62.22
56719;BME280;42597;40.636;0.278;2023-07-31T06:27:44;97435.84;;;25.92;60.58
56719;BME280;42597;40.636;0.278;2023-07-31T06:30:10;97435.19;;;25.88;60.17
56719;BME280;42597;40.636;0.278;2023-07-31T06:32:35;97438.56;;;26.21;59.01
56719;BME280;42597;40.636;0.278;2023-07-31T06:35:01;97437.19;;;26.00;60.25
56719;BME280;42597;40.636;0.278;2023-07-31T06:37:26;97440.53;;;25.53;60.34
56719;BME280;42597;40.636;0.278;2023-07-31T06:39:52;97439.97;;;25.58;59.16
56719;BME280;42597;40.636;0.278;2023-07-31T06:42:17;97441.50;;;25.89;58.56
56719;BME280;42597;40.636;0.278;2023-07-31T06:44:43;97446.94;;;26.05;58.15
56719;BME280;42597;40.636;0.278;2023-07-31T06:47:08;97437.91;;;26.17;57.74
56719;BME280;42597;40.636;0.278;2023-07-31T06:49:34;97437.00;;;26.58;57.39
56719;BME280;42597;40.636;0.278;2023-07-31T06:51:59;97442.34;;;26.66;57.29
56719;BME280;42597;40.636;0.278;2023-07-31T06:54:25;97445.66;;;26.61;54.98
56719;BME280;42597;40.636;0.278;2023-07-31T06:56:50;97446.75;;;26.76;54.61
56719;BME280;42597;40.636;0.278;2023-07-31T06:59:17;97444.69;;;26.89;53.52
56719;BME280;42597;40.636;0.278;2023-07-31T07:01:43;97442.56;;;27.19;54.11
56719;BME280;42597;40.636;0.278;2023-07-31T07:04:09;97446.88;;;27.20;54.74
56719;BME280;42597;40.636;0.278;2023-07-31T07:06:34;97451.19;;;27.21;58.78
56719;BME280;42597;40.636;0.278;2023-07-31T07:09:00;97441.63;;;26.87;60.31
56719;BME280;42597;40.636;0.278;2023-07-31T07:11:26;97439.00;;;26.71;61.28
56719;BME280;42597;40.636;0.278;2023-07-31T07:13:51;97434.34;;;26.68;62.10
56719;BME280;42597;40.636;0.278;2023-07-31T07:16:17;97431.47;;;26.58;62.57
56719;BME280;42597;40.636;0.278;2023-07-31T07:18:42;97440.09;;;26.61;63.60
56719;BME280;42597;40.636;0.278;2023-07-31T07:21:08;97440.88;;;27.08;62.50
56719;BME280;42597;40.636;0.278;2023-07-31T07:23:33;97448.19;;;27.28;61.73
56719;BME280;42597;40.636;0.278;2023-07-31T07:25:59;97439.53;;;27.26;61.90
56719;BME280;42597;40.636;0.278;2023-07-31T07:28:25;97447.06;;;27.25;63.50
56719;BME280;42597;40.636;0.278;2023-07-31T07:30:54;97443.47;;;27.38;63.47
56719;BME280;42597;40.636;0.278;2023-07-31T07:33:19;97446.91;;;27.86;62.66
56719;BME280;42597;40.636;0.278;2023-07-31T07:35:45;97449.75;;;27.95;71.52
56719;BME280;42597;40.636;0.278;2023-07-31T07:38:10;97456.13;;;28.04;75.95
56719;BME280;42597;40.636;0.278;2023-07-31T07:40:39;97457.09;;;28.11;67.24
56719;BME280;42597;40.636;0.278;2023-07-31T07:43:05;97454.81;;;28.18;71.12
56719;BME280;42597;40.636;0.278;2023-07-31T07:45:30;97457.56;;;27.43;66.91
56719;BME280;42597;40.636;0.278;2023-07-31T07:47:56;97450.66;;;27.92;70.12
56719;BME280;42597;40.636;0.278;2023-07-31T07:50:21;97448.34;;;27.90;67.49
56719;BME280;42597;40.636;0.278;2023-07-31T07:52:47;97446.47;;;28.18;79.64
56719;BME280;42597;40.636;0.278;2023-07-31T07:55:12;97442.03;;;28.30;83.14
56719;BME280;42597;40.636;0.278;2023-07-31T07:57:38;97440.19;;;28.27;74.19
56719;BME280;42597;40.636;0.278;2023-07-31T08:00:05;97439.06;;;28.46;77.21
56719;BME280;42597;40.636;0.278;2023-07-31T08:02:31;97438.72;;;28.44;75.82
56719;BME280;42597;40.636;0.278;2023-07-31T08:04:56;97433.88;;;28.36;70.38
56719;BME280;42597;40.636;0.278;2023-07-31T08:07:22;97437.31;;;28.09;75.80
56719;BME280;42597;40.636;0.278;2023-07-31T08:09:47;97432.56;;;28.49;70.25
56719;BME280;42597;40.636;0.278;2023-07-31T08:12:13;97432.19;;;27.54;72.72
56719;BME280;42597;40.636;0.278;2023-07-31T08:14:38;97434.72;;;28.45;73.98
56719;BME280;42597;40.636;0.278;2023-07-31T08:17:04;97433.66;;;28.21;70.73
56719;BME280;42597;40.636;0.278;2023-07-31T08:19:29;97438.88;;;28.50;76.02
56719;BME280;42597;40.636;0.278;2023-07-31T08:21:55;97437.34;;;28.49;71.03
56719;BME280;42597;40.636;0.278;2023-07-31T08:24:20;97429.38;;;28.69;72.22
56719;BME280;42597;40.636;0.278;2023-07-31T08:26:46;97434.03;;;28.32;73.77
56719;BME280;42597;40.636;0.278;2023-07-31T08:29:12;97425.06;;;28.77;73.09
56719;BME280;42597;40.636;0.278;2023-07-31T08:31:38;97420.91;;;28.82;70.23
56719;BME280;42597;40.636;0.278;2023-07-31T08:34:03;97417.25;;;29.13;73.34
56719;BME280;42597;40.636;0.278;2023-07-31T08:36:29;97419.72;;;29.38;69.30
56719;BME280;42597;40.636;0.278;2023-07-31T08:38:54;97425.44;;;29.25;68.80
56719;BME280;42597;40.636;0.278;2023-07-31T08:41:20;97416.94;;;29.20;67.24
56719;BME280;42597;40.636;0.278;2023-07-31T08:43:47;97422.97;;;29.37;66.03
56719;BME280;42597;40.636;0.278;2023-07-31T08:46:14;97416.47;;;29.40;64.00
56719;BME280;42597;40.636;0.278;2023-07-31T08:48:43;97420.19;;;29.27;64.39
56719;BME280;42597;40.636;0.278;2023-07-31T08:51:09;97416.03;;;29.60;63.51
56719;BME280;42597;40.636;0.278;2023-07-31T08:53:35;97415.69;;;29.67;63.36
56719;BME280;42597;40.636;0.278;2023-07-31T08:56:01;97412.28;;;29.72;61.85
56719;BME280;42597;40.636;0.278;2023-07-31T08:58:30;97420.19;;;29.27;66.46
56719;BME280;42597;40.636;0.278;2023-07-31T09:00:56;97411.66;;;29.49;67.52
56719;BME280;42597;40.636;0.278;2023-07-31T09:03:23;97411.09;;;30.06;66.84
56719;BME280;42597;40.636;0.278;2023-07-31T09:05:50;97414.75;;;29.79;66.63
56719;BME280;42597;40.636;0.278;2023-07-31T09:08:18;97411.16;;;29.79;69.23
56719;BME280;42597;40.636;0.278;2023-07-31T09:10:45;97414.16;;;29.20;71.20
56719;BME280;42597;40.636;0.278;2023-07-31T09:13:15;97420.34;;;29.51;70.58
56719;BME280;42597;40.636;0.278;2023-07-31T09:15:43;97421.25;;;29.48;72.16
56719;BME280;42597;40.636;0.278;2023-07-31T09:18:09;97416.03;;;29.60;71.90
56719;BME280;42597;40.636;0.278;2023-07-31T09:20:36;97421.22;;;28.84;74.85
56719;BME280;42597;40.636;0.278;2023-07-31T09:23:11;97415.69;;;29.67;71.58
56719;BME280;42597;40.636;0.278;2023-07-31T09:25:38;97421.25;;;29.76;71.50
56719;BME280;42597;40.636;0.278;2023-07-31T09:28:08;97416.59;;;29.73;69.99
56719;BME280;42597;40.636;0.278;2023-07-31T09:30:46;97421.69;;;28.83;69.48
56719;BME280;42597;40.636;0.278;2023-07-31T09:33:12;97420.63;;;29.81;69.34
56719;BME280;42597;40.636;0.278;2023-07-31T09:35:38;97411.97;;;29.70;72.23
56719;BME280;42597;40.636;0.278;2023-07-31T09:38:08;97408.84;;;29.86;74.38
56719;BME280;42597;40.636;0.278;2023-07-31T09:40:39;97410.72;;;29.80;74.52
56719;BME280;42597;40.636;0.278;2023-07-31T09:43:07;97419.63;;;30.03;70.54
56719;BME280;42597;40.636;0.278;2023-07-31T09:45:43;97413.19;;;30.30;70.85
56719;BME280;42597;40.636;0.278;2023-07-31T09:48:13;97404.81;;;29.87;67.69
56719;BME280;42597;40.636;0.278;2023-07-31T09:50:43;97402.88;;;30.12;67.75
56719;BME280;42597;40.636;0.278;2023-07-31T09:53:09;97395.16;;;30.16;67.94
56719;BME280;42597;40.636;0.278;2023-07-31T09:55:36;97398.78;;;30.31;67.61
56719;BME280;42597;40.636;0.278;2023-07-31T09:58:07;97395.88;;;30.83;68.43
56719;BME280;42597;40.636;0.278;2023-07-31T10:00:33;97403.03;;;30.51;64.44
56719;BME280;42597;40.636;0.278;2023-07-31T10:03:01;97404.22;;;30.59;63.73
56719;BME280;42597;40.636;0.278;2023-07-31T10:05:35;97402.09;;;30.54;65.24
56719;BME280;42597;40.636;0.278;2023-07-31T10:08:02;97399.94;;;30.48;67.53
56719;BME280;42597;40.636;0.278;2023-07-31T10:10:28;97392.91;;;30.29;66.85
56719;BME280;42597;40.636;0.278;2023-07-31T10:12:56;97393.50;;;30.33;64.57
56719;BME280;42597;40.636;0.278;2023-07-31T10:15:21;97392.72;;;30.66;60.73
56719;BME280;42597;40.636;0.278;2023-07-31T10:17:48;97387.47;;;30.59;59.76
56719;BME280;42597;40.636;0.278;2023-07-31T10:20:14;97385.13;;;30.90;60.61
56719;BME280;42597;40.636;0.278;2023-07-31T10:22:42;97390.34;;;30.97;62.81
56719;BME280;42597;40.636;0.278;2023-07-31T10:25:08;97386.13;;;30.54;67.79
56719;BME280;42597;40.636;0.278;2023-07-31T10:27:36;97384.59;;;30.20;67.12
56719;BME280;42597;40.636;0.278;2023-07-31T10:30:05;97375.97;;;30.66;67.97
56719;BME280;42597;40.636;0.278;2023-07-31T10:32:31;97380.88;;;30.80;67.76
56719;BME280;42597;40.636;0.278;2023-07-31T10:34:58;97386.53;;;31.10;67.21
56719;BME280;42597;40.636;0.278;2023-07-31T10:37:28;97379.56;;;31.29;66.23
56719;BME280;42597;40.636;0.278;2023-07-31T10:42:38;97385.78;;;30.61;67.46
56719;BME280;42597;40.636;0.278;2023-07-31T10:45:10;97386.34;;;30.65;70.40
56719;BME280;42597;40.636;0.278;2023-07-31T10:47:43;97380.94;;;30.38;71.76
56719;BME280;42597;40.636;0.278;2023-07-31T10:52:38;97383.22;;;29.45;73.37
56719;BME280;42597;40.636;0.278;2023-07-31T10:57:45;97380.34;;;30.34;73.50
56719;BME280;42597;40.636;0.278;2023-07-31T11:00:21;97379.78;;;30.54;72.93
56719;BME280;42597;40.636;0.278;2023-07-31T11:03:04;97387.97;;;30.15;77.75
56719;BME280;42597;40.636;0.278;2023-07-31T11:05:46;97381.25;;;29.97;78.51
56719;BME280;42597;40.636;0.278;2023-07-31T11:08:14;97376.91;;;30.63;75.47
56719;BME280;42597;40.636;0.278;2023-07-31T11:10:40;97373.56;;;30.83;73.87
56719;BME280;42597;40.636;0.278;2023-07-31T11:13:05;97378.09;;;30.80;74.32
56719;BME280;42597;40.636;0.278;2023-07-31T11:15:31;97372.06;;;29.55;73.56
56719;BME280;42597;40.636;0.278;2023-07-31T11:17:57;97377.03;;;30.44;76.63
56719;BME280;42597;40.636;0.278;2023-07-31T11:20:25;97370.41;;;29.99;77.98
56719;BME280;42597;40.636;0.278;2023-07-31T11:22:51;97371.34;;;29.96;78.51
56719;BME280;42597;40.636;0.278;2023-07-31T11:25:18;97369.25;;;29.73;80.19
56719;BME280;42597;40.636;0.278;2023-07-31T11:27:43;97357.66;;;30.17;78.60
56719;BME280;42597;40.636;0.278;2023-07-31T11:30:10;97370.06;;;30.16;79.20
56719;BME280;42597;40.636;0.278;2023-07-31T11:32:38;97373.38;;;29.96;79.80
56719;BME280;42597;40.636;0.278;2023-07-31T11:35:04;97361.38;;;30.47;78.59
56719;BME280;42597;40.636;0.278;2023-07-31T11:37:44;97350.34;;;30.53;77.90
56719;BME280;42597;40.636;0.278;2023-07-31T11:40:10;97359.22;;;30.18;81.93
56719;BME280;42597;40.636;0.278;2023-07-31T11:42:36;97352.06;;;29.84;83.13
56719;BME280;42597;40.636;0.278;2023-07-31T11:45:03;97348.38;;;30.11;79.08
56719;BME280;42597;40.636;0.278;2023-07-31T11:47:29;97346.97;;;29.73;82.76
56719;BME280;42597;40.636;0.278;2023-07-31T11:49:57;97341.59;;;30.03;82.26
56719;BME280;42597;40.636;0.278;2023-07-31T11:52:23;97346.34;;;29.78;83.91
56719;BME280;42597;40.636;0.278;2023-07-31T11:54:50;97339.59;;;29.61;84.70
56719;BME280;42597;40.636;0.278;2023-07-31T11:57:16;97341.19;;;30.28;80.87
56719;BME280;42597;40.636;0.278;2023-07-31T11:59:43;97333.84;;;30.07;81.24
56719;BME280;42597;40.636;0.278;2023-07-31T12:02:09;97328.72;;;29.72;80.70
56719;BME280;42597;40.636;0.278;2023-07-31T12:04:35;97323.16;;;30.05;81.67
56719;BME280;42597;40.636;0.278;2023-07-31T12:07:01;97326.53;;;30.42;81.79
56719;BME280;42597;40.636;0.278;2023-07-31T12:09:26;97323.66;;;29.94;81.09
56719;BME280;42597;40.636;0.278;2023-07-31T12:11:52;97314.25;;;30.25;83.17
56719;BME280;42597;40.636;0.278;2023-07-31T12:14:24;97318.13;;;30.52;83.80
56719;BME280;42597;40.636;0.278;2023-07-31T12:17:01;97321.47;;;30.08;82.17
56719;BME280;42597;40.636;0.278;2023-07-31T12:19:29;97311.22;;;29.81;85.74
56719;BME280;42597;40.636;0.278;2023-07-31T12:21:59;97312.78;;;30.06;85.81
56719;BME280;42597;40.636;0.278;2023-07-31T12:24:28;97307.97;;;30.06;84.79
56719;BME280;42597;40.636;0.278;2023-07-31T12:26:54;97296.59;;;30.28;82.72
56719;BME280;42597;40.636;0.278;2023-07-31T12:29:20;97285.78;;;30.69;81.67
56719;BME280;42597;40.636;0.278;2023-07-31T12:31:46;97294.34;;;30.41;82.96
56719;BME280;42597;40.636;0.278;2023-07-31T12:34:20;97290.50;;;30.06;84.71
56719;BME280;42597;40.636;0.278;2023-07-31T12:36:46;97291.59;;;29.75;87.61
56719;BME280;42597;40.636;0.278;2023-07-31T12:39:14;97290.34;;;29.67;83.66
56719;BME280;42597;40.636;0.278;2023-07-31T12:41:40;97286.72;;;30.66;83.65
56719;BME280;42597;40.636;0.278;2023-07-31T12:44:06;97280.03;;;30.48;84.00
56719;BME280;42597;40.636;0.278;2023-07-31T12:46:31;97288.53;;;30.30;83.92
56719;BME280;42597;40.636;0.278;2023-07-31T12:48:57;97282.78;;;30.00;85.40
56719;BME280;42597;40.636;0.278;2023-07-31T12:51:22;97278.16;;;29.97;85.75
56719;BME280;42597;40.636;0.278;2023-07-31T12:53:48;97280.25;;;30.12;86.58
56719;BME280;42597;40.636;0.278;2023-07-31T12:56:13;97276.03;;;29.92;88.06
56719;BME280;42597;40.636;0.278;2023-07-31T12:58:42;97277.28;;;29.91;87.32
56719;BME280;42597;40.636;0.278;2023-07-31T13:01:07;97274.78;;;29.93;86.15
56719;BME280;42597;40.636;0.278;2023-07-31T13:03:33;97269.50;;;29.95;86.29
56719;BME280;42597;40.636;0.278;2023-07-31T13:05:58;97269.66;;;29.49;86.24
56719;BME280;42597;40.636;0.278;2023-07-31T13:08:24;97266.00;;;29.86;88.29
56719;BME280;42597;40.636;0.278;2023-07-31T13:10:49;97256.16;;;29.75;88.27
56719;BME280;42597;40.636;0.278;2023-07-31T13:13:15;97253.19;;;29.37;90.32